Kulusuk, Kulusuk Airport (BGKK)

NameKulusuk Airport
CityKulusuk
CountryGreenland
ICAOBGKK
IATAKUS
Altitude36 m
CoordinatesGoogle Map
Live Air TrafficLiveATC.net
METARBGKK 180050Z AUTO 20002KT 9999NDV NCD M12/M16 Q1013
2019-01-18 00:50:00 Wind: South (200°) 1.03 m/s - Visibility: > 10000 m - Temperature: -12 °C - Dew point: -16 °C - Humidity: 72.4% - Pressure: 1013 hPa
Statistics

The table below shows the detailed information of all flights to/from Kulusuk, Kulusuk Airport (BGKK).